Auburn, CA (95603)

10:47 AM PDT on August 24, 2016 (GMT -0700)
| | Change Station

Elev -9999 ft 0.00 °N, 0.00 °E | Updated

Clear
Clear
84 °F
Feels Like 84 °F
N
5
Wind Variable Wind from SW
Gusts mph

Today
High -- | Low -- °F
--% Chance of Precip.
Yesterday
High -- | Low -- °F
Precip. -- in
Pressure 30.10 in
Visibility 10.0 miles
Clouds Clear
Dew Point 40 °F
Humidity 21%
Rainfall --
Snow Depth Not available.
6:26 AM 7:45 PM
Waning Gibbous, 55% visible
METAR KAUN 241735Z AUTO 23003KT 10SM CLR 28/01 A3010 RMK AO1
Pressure 30.10 in
Visibility 10.0 miles
Clouds Clear
Dew Point 40 °F
Humidity 21%
Rainfall --
Snow Depth Not available.
6:26 AM 7:45 PM
Waning Gibbous, 55% visible
METAR KAUN 241735Z AUTO 23003KT 10SM CLR 28/01 A3010 RMK AO1

10-Day Weather Forecast

Almanac

Astronomy

Aug. 24, 2016 Rise Set
Actual Time
Civil Twilight
Nautical Twilight
Astronomical Twilight
Moon
Length of Visible Light
Length of Day
Tomorrow will be .
, % of the Moon is Illuminated

Today's Extremes

State Highs State Lows

Community

WunderPhotos

Upload Photos

1,934,661 photos uploaded!

WunderBlog® & News

Nearby

Air Quality

  Air Quality AQ Index Pollutant
Not available.

Snow Depth

Station Depth Elevation

Earthquake Activity

City Distance Mag. Time & Date
Minimum magnitude displayed is 2.5.

Coastal Water Temperatures

Place Temperature

Stations

Nearby Weather Stations

Station Location Temp. Windchill Dew Point Humidity Wind Precip. Elev Updated Type
                   

Watches & Warnings

There are currently no watches in effect.